createdAt,value
2018-11-26T00:00:15.267Z,99.90
2018-11-26T00:01:19.389Z,99.90
2018-11-26T00:02:23.522Z,99.90
2018-11-26T00:03:27.772Z,99.90
2018-11-26T00:04:31.964Z,99.90
2018-11-26T00:05:36.228Z,99.90
2018-11-26T00:06:40.334Z,99.90
2018-11-26T00:07:44.520Z,99.90
2018-11-26T00:08:48.712Z,99.90
2018-11-26T00:09:52.883Z,99.90
2018-11-26T00:11:32.204Z,99.90
2018-11-26T00:12:36.406Z,99.90
2018-11-26T00:13:40.632Z,99.90
2018-11-26T00:14:44.917Z,99.90
2018-11-26T00:15:49.102Z,99.90
2018-11-26T00:16:55.311Z,99.90
2018-11-26T00:17:59.458Z,99.90
2018-11-26T00:19:03.536Z,99.90
2018-11-26T00:20:08.423Z,99.90
2018-11-26T00:21:12.483Z,99.90
2018-11-26T00:22:16.557Z,99.90
2018-11-26T00:23:20.694Z,99.90
2018-11-26T00:24:24.797Z,99.90
2018-11-26T00:25:28.895Z,99.90
2018-11-26T00:26:33.175Z,99.90
2018-11-26T00:27:37.422Z,99.90
2018-11-26T00:28:41.512Z,99.90
2018-11-26T00:29:45.526Z,99.90
2018-11-26T00:30:49.668Z,99.90
2018-11-26T00:31:53.887Z,99.90
2018-11-26T00:32:57.930Z,99.90
2018-11-26T00:34:01.928Z,99.90
2018-11-26T00:35:06.211Z,99.90
2018-11-26T00:36:10.200Z,99.90
2018-11-26T00:37:14.429Z,99.90
2018-11-26T00:38:18.447Z,99.90
2018-11-26T00:39:22.558Z,99.90
2018-11-26T00:40:26.633Z,99.90
2018-11-26T00:41:30.704Z,99.90
2018-11-26T00:42:34.778Z,99.90
2018-11-26T00:43:38.869Z,99.90
2018-11-26T00:44:42.932Z,99.90
2018-11-26T00:45:47.020Z,99.90
2018-11-26T00:46:51.270Z,99.90
2018-11-26T00:47:55.327Z,99.90
2018-11-26T00:48:59.427Z,99.90
2018-11-26T00:50:03.528Z,99.90
2018-11-26T00:51:07.887Z,99.90
2018-11-26T00:52:11.964Z,99.90
2018-11-26T00:53:16.175Z,99.90
2018-11-26T00:54:20.168Z,99.90
2018-11-26T00:55:24.147Z,99.90
2018-11-26T00:56:28.295Z,99.90
2018-11-26T00:57:32.352Z,99.90
2018-11-26T00:58:36.480Z,99.90
2018-11-26T00:59:40.420Z,99.90
2018-11-26T01:00:44.380Z,99.90
2018-11-26T01:01:48.433Z,99.90
2018-11-26T01:02:52.472Z,99.90
2018-11-26T01:03:56.596Z,99.90
2018-11-26T01:05:00.765Z,99.90
2018-11-26T01:06:05.171Z,99.90
2018-11-26T01:07:09.205Z,99.90
2018-11-26T01:08:13.283Z,99.90
2018-11-26T01:09:17.386Z,99.90
2018-11-26T01:10:21.469Z,99.90
2018-11-26T01:11:25.690Z,99.90
2018-11-26T01:12:29.829Z,99.90
2018-11-26T01:13:33.926Z,99.90
2018-11-26T01:14:38.155Z,99.90
2018-11-26T01:15:42.449Z,99.90
2018-11-26T01:16:46.604Z,99.90
2018-11-26T01:17:50.620Z,99.90
2018-11-26T01:18:54.645Z,99.90
2018-11-26T01:19:58.735Z,99.90
2018-11-26T01:21:02.745Z,99.90
2018-11-26T01:22:06.779Z,99.90
2018-11-26T01:23:10.825Z,99.90
2018-11-26T01:24:14.863Z,99.90
2018-11-26T01:25:19.036Z,99.90
2018-11-26T01:26:23.059Z,99.90
2018-11-26T01:27:26.998Z,99.90
2018-11-26T01:28:30.988Z,99.90
2018-11-26T01:29:35.035Z,99.90
2018-11-26T01:30:39.184Z,99.90
2018-11-26T01:31:43.196Z,99.90
2018-11-26T01:32:47.255Z,99.90
2018-11-26T01:33:51.211Z,99.90
2018-11-26T01:34:55.160Z,99.90
2018-11-26T01:35:59.260Z,99.90
2018-11-26T01:37:03.312Z,99.90
2018-11-26T01:38:07.370Z,99.90
2018-11-26T01:39:11.385Z,99.90
2018-11-26T01:40:28.945Z,99.90
2018-11-26T01:41:33.007Z,99.90
2018-11-26T01:42:37.050Z,99.90
2018-11-26T01:43:41.047Z,99.90
2018-11-26T01:44:45.102Z,99.90
2018-11-26T01:45:49.233Z,99.90
2018-11-26T01:46:53.395Z,99.90
2018-11-26T01:47:57.488Z,99.90
2018-11-26T01:49:01.601Z,99.90
2018-11-26T01:50:06.307Z,99.90
2018-11-26T01:51:10.310Z,99.90
2018-11-26T01:52:14.331Z,99.90
2018-11-26T01:53:18.402Z,99.90
2018-11-26T01:54:22.468Z,99.90
2018-11-26T01:55:26.476Z,99.90
2018-11-26T01:56:30.536Z,99.90
2018-11-26T01:57:34.636Z,99.90
2018-11-26T01:58:38.884Z,99.90
2018-11-26T01:59:43.003Z,99.90
2018-11-26T02:00:47.014Z,99.90
2018-11-26T02:01:51.086Z,99.90
2018-11-26T02:02:55.313Z,99.90
2018-11-26T02:03:59.497Z,99.90
2018-11-26T02:05:03.616Z,99.90
2018-11-26T02:06:07.744Z,99.90
2018-11-26T02:07:11.757Z,99.90
2018-11-26T02:08:15.779Z,99.90
2018-11-26T02:09:19.796Z,99.90
2018-11-26T02:10:23.839Z,99.90
2018-11-26T02:11:27.859Z,99.90
2018-11-26T02:12:31.888Z,99.90
2018-11-26T02:13:36.306Z,99.90
2018-11-26T02:14:40.313Z,99.90
2018-11-26T02:15:44.328Z,99.90
2018-11-26T02:16:48.383Z,99.90
2018-11-26T02:17:52.379Z,99.90
2018-11-26T02:18:56.484Z,99.90
2018-11-26T02:20:00.458Z,99.90
2018-11-26T02:21:04.547Z,99.90
2018-11-26T02:22:08.551Z,99.90
2018-11-26T02:23:12.565Z,99.90
2018-11-26T02:24:16.616Z,99.90
2018-11-26T02:25:20.640Z,99.90
2018-11-26T02:26:24.676Z,99.90
2018-11-26T02:27:28.740Z,99.90
2018-11-26T02:28:32.707Z,99.90
2018-11-26T02:29:36.799Z,99.90
2018-11-26T02:30:41.067Z,99.90
2018-11-26T02:31:45.012Z,99.90
2018-11-26T02:32:49.012Z,99.90
2018-11-26T02:33:53.030Z,99.90
2018-11-26T02:34:57.100Z,99.90
2018-11-26T02:36:01.075Z,99.90
2018-11-26T02:37:05.130Z,99.90
2018-11-26T02:38:09.147Z,99.90
2018-11-26T02:39:13.169Z,99.90
2018-11-26T02:40:26.404Z,99.90
2018-11-26T02:41:30.486Z,99.90
2018-11-26T02:42:34.517Z,99.90
2018-11-26T02:43:38.495Z,99.90
2018-11-26T02:44:42.508Z,99.90
2018-11-26T02:45:46.503Z,99.90
2018-11-26T02:46:50.520Z,99.90
2018-11-26T02:47:54.559Z,99.90
2018-11-26T02:48:58.563Z,99.90
2018-11-26T02:50:02.654Z,99.90
2018-11-26T02:51:06.783Z,99.90
2018-11-26T02:52:10.789Z,99.90
2018-11-26T02:53:14.879Z,99.90
2018-11-26T02:54:18.840Z,99.90
2018-11-26T02:55:22.884Z,99.90
2018-11-26T02:56:26.960Z,99.90
2018-11-26T02:57:30.995Z,99.90
2018-11-26T02:58:34.984Z,99.90
2018-11-26T02:59:38.902Z,99.90
2018-11-26T03:00:43.204Z,99.90
2018-11-26T03:01:47.219Z,99.90
2018-11-26T03:02:51.191Z,99.90
2018-11-26T03:03:55.178Z,99.90
2018-11-26T03:04:59.183Z,99.90
2018-11-26T03:06:03.305Z,99.90
2018-11-26T03:07:07.564Z,99.90
2018-11-26T03:08:11.584Z,99.90
2018-11-26T03:09:15.640Z,99.90
2018-11-26T03:10:19.599Z,99.90
2018-11-26T03:11:23.540Z,99.90
2018-11-26T03:12:27.548Z,99.90
2018-11-26T03:13:31.583Z,99.90
2018-11-26T03:14:35.583Z,99.90
2018-11-26T03:15:40.424Z,99.90
2018-11-26T03:16:44.475Z,99.90
2018-11-26T03:17:48.520Z,99.90
2018-11-26T03:18:52.484Z,99.90
2018-11-26T03:19:56.436Z,99.90
2018-11-26T03:21:00.488Z,99.90
2018-11-26T03:22:04.494Z,99.90
2018-11-26T03:23:09.143Z,99.90
2018-11-26T03:24:13.190Z,99.90
2018-11-26T03:25:17.143Z,99.90
2018-11-26T03:26:21.085Z,99.90
2018-11-26T03:27:25.189Z,99.90
2018-11-26T03:28:29.228Z,99.90
2018-11-26T03:29:33.155Z,99.90
2018-11-26T03:30:37.332Z,99.90
2018-11-26T03:31:41.382Z,99.90
2018-11-26T03:32:45.508Z,99.90
2018-11-26T03:33:49.502Z,99.90
2018-11-26T03:34:53.604Z,99.90
2018-11-26T03:35:57.575Z,99.90
2018-11-26T03:37:01.548Z,99.90
2018-11-26T03:38:05.584Z,99.90
2018-11-26T03:39:09.624Z,99.90
2018-11-26T03:40:14.103Z,99.90
2018-11-26T03:41:18.071Z,99.90
2018-11-26T03:42:22.077Z,99.90
2018-11-26T03:43:26.024Z,99.90
2018-11-26T03:44:30.009Z,99.90
2018-11-26T03:45:33.960Z,99.90
2018-11-26T03:46:38.006Z,99.90
2018-11-26T03:47:42.184Z,99.90
2018-11-26T03:48:46.154Z,99.90
2018-11-26T03:49:50.152Z,99.90
2018-11-26T03:50:54.112Z,99.90
2018-11-26T03:51:58.071Z,99.90
2018-11-26T03:53:02.097Z,99.90
2018-11-26T03:54:06.379Z,99.90
2018-11-26T03:55:11.421Z,99.90
2018-11-26T03:56:15.411Z,99.90
2018-11-26T03:57:19.444Z,99.90
2018-11-26T03:58:28.491Z,99.90
2018-11-26T03:59:32.509Z,99.90
2018-11-26T04:00:36.476Z,99.90
2018-11-26T04:01:40.500Z,99.90
2018-11-26T04:02:44.529Z,99.90
2018-11-26T04:03:48.594Z,99.90
2018-11-26T04:04:52.786Z,99.90
2018-11-26T04:05:56.933Z,99.90
2018-11-26T04:07:00.904Z,99.90
2018-11-26T04:08:04.931Z,99.90
2018-11-26T04:09:09.324Z,99.90
2018-11-26T04:10:13.919Z,99.90
2018-11-26T04:11:18.041Z,99.90
2018-11-26T04:12:22.029Z,99.90
2018-11-26T04:13:26.123Z,99.90
2018-11-26T04:14:30.176Z,99.90
2018-11-26T04:15:34.200Z,99.90
2018-11-26T04:16:38.298Z,99.90
2018-11-26T04:17:42.402Z,99.90
2018-11-26T04:18:46.348Z,99.90
2018-11-26T04:19:50.363Z,99.90
2018-11-26T04:20:54.288Z,99.90
2018-11-26T04:21:58.307Z,99.90
2018-11-26T04:23:02.355Z,99.90
2018-11-26T04:24:06.779Z,99.90
2018-11-26T04:25:10.952Z,99.90
2018-11-26T04:26:15.005Z,99.90
2018-11-26T04:27:19.164Z,99.90
2018-11-26T04:28:23.107Z,99.90
2018-11-26T04:29:27.064Z,99.90
2018-11-26T04:30:30.999Z,99.90
2018-11-26T04:31:35.096Z,99.90
2018-11-26T04:32:39.680Z,99.90
2018-11-26T04:33:43.720Z,99.90
2018-11-26T04:34:47.759Z,99.90
2018-11-26T04:35:51.744Z,99.90
2018-11-26T04:36:55.765Z,99.90
2018-11-26T04:37:59.760Z,99.90
2018-11-26T04:39:03.880Z,99.90
2018-11-26T04:40:09.698Z,99.90
2018-11-26T04:41:13.720Z,99.90
2018-11-26T04:42:17.744Z,99.90
2018-11-26T04:43:21.809Z,99.90
2018-11-26T04:44:25.821Z,99.90
2018-11-26T04:45:29.883Z,99.90
2018-11-26T04:46:33.912Z,99.90
2018-11-26T04:47:38.212Z,99.90
2018-11-26T04:48:42.314Z,99.90
2018-11-26T04:49:46.344Z,99.90
2018-11-26T04:50:50.340Z,99.90
2018-11-26T04:51:54.328Z,99.90
2018-11-26T04:52:58.372Z,99.90
2018-11-26T04:54:02.456Z,99.90
2018-11-26T04:55:06.923Z,99.90
2018-11-26T04:56:10.896Z,99.90
2018-11-26T04:57:14.879Z,99.90
2018-11-26T04:58:18.900Z,99.90
2018-11-26T04:59:22.971Z,99.90
2018-11-26T05:00:26.981Z,99.90
2018-11-26T05:01:31.114Z,99.90
2018-11-26T05:02:35.091Z,99.90
2018-11-26T05:03:39.000Z,99.90
2018-11-26T05:04:43.020Z,99.90
2018-11-26T05:05:46.946Z,99.90
2018-11-26T05:06:51.023Z,99.90
2018-11-26T05:07:55.796Z,99.90
2018-11-26T05:08:59.757Z,99.90
2018-11-26T05:10:04.280Z,99.90
2018-11-26T05:11:08.476Z,99.90
2018-11-26T05:12:12.517Z,99.90
2018-11-26T05:13:16.921Z,99.90
2018-11-26T05:14:21.425Z,99.90
2018-11-26T05:15:25.451Z,99.90
2018-11-26T05:16:29.504Z,99.90
2018-11-26T05:17:33.537Z,99.90
2018-11-26T05:18:37.679Z,99.90
2018-11-26T05:19:41.711Z,99.90
2018-11-26T05:20:45.797Z,99.90
2018-11-26T05:21:49.741Z,99.90
2018-11-26T05:22:53.854Z,99.90
2018-11-26T05:23:57.812Z,99.90
2018-11-26T05:25:02.154Z,99.90
2018-11-26T05:26:06.603Z,99.90
2018-11-26T05:27:10.624Z,99.90
2018-11-26T05:28:14.659Z,99.90
2018-11-26T05:29:18.640Z,99.90
2018-11-26T05:30:22.800Z,99.90
2018-11-26T05:31:26.863Z,99.90
2018-11-26T05:32:31.082Z,99.90
2018-11-26T05:33:35.167Z,99.90
2018-11-26T05:34:39.688Z,99.90
2018-11-26T05:35:43.732Z,99.90
2018-11-26T05:36:47.806Z,99.90
2018-11-26T05:37:51.868Z,99.90
2018-11-26T05:38:55.923Z,99.90
2018-11-26T05:39:59.908Z,99.90
2018-11-26T05:41:03.995Z,99.90
2018-11-26T05:42:08.081Z,99.90
2018-11-26T05:43:12.294Z,99.90
2018-11-26T05:44:16.280Z,99.90
2018-11-26T05:45:20.319Z,99.90
2018-11-26T05:46:24.404Z,99.90
2018-11-26T05:47:28.521Z,99.90
2018-11-26T05:48:33.369Z,99.90
2018-11-26T05:49:37.445Z,99.90
2018-11-26T05:50:41.601Z,99.90
2018-11-26T05:51:45.604Z,99.90
2018-11-26T05:52:49.645Z,99.90
2018-11-26T05:53:53.869Z,99.90
2018-11-26T05:54:57.885Z,99.90
2018-11-26T05:56:01.976Z,99.90
2018-11-26T05:57:06.348Z,99.90
2018-11-26T05:58:10.437Z,99.90
2018-11-26T05:59:14.484Z,99.90
2018-11-26T06:00:26.649Z,99.90
2018-11-26T06:01:30.688Z,99.90
2018-11-26T06:02:34.707Z,99.90
2018-11-26T06:03:38.732Z,99.90
2018-11-26T06:04:42.789Z,99.90
2018-11-26T06:05:46.786Z,99.90
2018-11-26T06:06:50.930Z,99.90
2018-11-26T06:07:54.997Z,99.90
2018-11-26T06:08:59.157Z,99.90
2018-11-26T06:10:03.700Z,99.90
2018-11-26T06:11:08.029Z,99.90
2018-11-26T06:12:12.187Z,99.90
2018-11-26T06:13:16.292Z,99.90
2018-11-26T06:14:20.452Z,99.90
2018-11-26T06:15:24.412Z,99.90
2018-11-26T06:16:28.452Z,99.90
2018-11-26T06:17:32.453Z,99.90
2018-11-26T06:18:36.438Z,99.90
2018-11-26T06:19:40.566Z,99.90
2018-11-26T06:20:44.568Z,99.90
2018-11-26T06:21:48.573Z,99.90
2018-11-26T06:22:52.621Z,99.90
2018-11-26T06:23:56.681Z,99.90
2018-11-26T06:25:00.851Z,99.90
2018-11-26T06:26:04.919Z,99.90
2018-11-26T06:27:09.019Z,99.90
2018-11-26T06:28:13.231Z,99.90
2018-11-26T06:29:17.228Z,99.90
2018-11-26T06:30:21.324Z,99.90
2018-11-26T06:31:26.284Z,99.90
2018-11-26T06:32:30.474Z,99.90
2018-11-26T06:33:34.536Z,99.90
2018-11-26T06:34:42.384Z,99.90
2018-11-26T06:35:42.864Z,99.90
2018-11-26T06:36:46.869Z,99.90
2018-11-26T06:37:51.014Z,99.90
2018-11-26T06:38:55.042Z,99.90
2018-11-26T06:39:59.152Z,99.90
2018-11-26T06:41:03.921Z,99.90
2018-11-26T06:42:08.030Z,99.90
2018-11-26T06:43:12.000Z,99.90
2018-11-26T06:44:16.068Z,99.90
2018-11-26T06:45:22.283Z,99.90
2018-11-26T06:46:26.310Z,99.90
2018-11-26T06:47:30.344Z,99.90
2018-11-26T06:48:34.342Z,99.90
2018-11-26T06:49:38.667Z,99.90
2018-11-26T06:50:42.796Z,99.90
2018-11-26T06:51:46.979Z,99.90
2018-11-26T06:52:51.078Z,99.90
2018-11-26T06:53:55.115Z,99.90
2018-11-26T06:54:59.232Z,99.90
2018-11-26T06:56:03.315Z,99.90
2018-11-26T06:57:07.793Z,99.90
2018-11-26T06:58:11.958Z,99.90
2018-11-26T06:59:16.156Z,99.90
2018-11-26T07:00:21.321Z,99.90
2018-11-26T07:01:25.589Z,99.90
2018-11-26T07:02:29.989Z,99.90
2018-11-26T07:03:34.232Z,99.90
2018-11-26T07:04:38.704Z,99.90
2018-11-26T07:05:42.732Z,99.90
2018-11-26T07:06:46.776Z,99.90
2018-11-26T07:07:50.946Z,99.90
2018-11-26T07:08:55.267Z,99.90
2018-11-26T07:09:59.328Z,99.90
2018-11-26T07:11:03.416Z,99.90
2018-11-26T07:12:07.576Z,99.90
2018-11-26T07:13:11.728Z,99.90
2018-11-26T07:14:15.712Z,99.90
2018-11-26T07:15:21.276Z,99.90
2018-11-26T07:16:25.285Z,99.90
2018-11-26T07:17:29.513Z,99.90
2018-11-26T07:18:33.672Z,99.90
2018-11-26T07:19:38.120Z,99.90
2018-11-26T07:20:42.228Z,99.90
2018-11-26T07:21:46.402Z,99.90
2018-11-26T07:22:50.496Z,99.90
2018-11-26T07:23:54.647Z,99.90
2018-11-26T07:24:58.695Z,99.90
2018-11-26T07:26:02.948Z,99.90
2018-11-26T07:27:07.183Z,99.90
2018-11-26T07:28:11.340Z,99.90
2018-11-26T07:29:15.503Z,99.90
2018-11-26T07:30:21.863Z,99.90
2018-11-26T07:31:25.987Z,99.90
2018-11-26T07:32:30.110Z,99.90
2018-11-26T07:33:34.300Z,99.90
2018-11-26T07:34:38.419Z,99.90
2018-11-26T07:35:42.494Z,99.90
2018-11-26T07:36:46.624Z,99.90
2018-11-26T07:37:50.716Z,99.90
2018-11-26T07:38:54.824Z,99.90
2018-11-26T07:39:59.004Z,99.90
2018-11-26T07:41:03.146Z,99.90
2018-11-26T07:42:07.804Z,99.90
2018-11-26T07:43:13.027Z,99.90
2018-11-26T07:44:16.982Z,99.90
2018-11-26T07:45:21.084Z,99.90
2018-11-26T07:46:25.302Z,99.90
2018-11-26T07:47:29.439Z,99.90
2018-11-26T07:48:33.549Z,99.90
2018-11-26T07:49:37.693Z,99.90
2018-11-26T07:50:41.830Z,99.90
2018-11-26T07:51:56.503Z,99.90
2018-11-26T07:53:00.493Z,99.90
2018-11-26T07:54:04.541Z,99.90
2018-11-26T07:55:11.891Z,99.90
2018-11-26T07:56:19.477Z,99.90
2018-11-26T07:57:26.199Z,99.90
2018-11-26T07:58:31.456Z,99.90
2018-11-26T07:59:35.632Z,99.90
2018-11-26T08:00:39.652Z,99.90
2018-11-26T08:01:43.730Z,99.90
2018-11-26T08:02:48.184Z,99.90
2018-11-26T08:03:52.261Z,99.90
2018-11-26T08:04:56.200Z,99.90
2018-11-26T08:06:00.140Z,99.90
2018-11-26T08:07:04.257Z,99.90
2018-11-26T08:08:08.375Z,99.90
2018-11-26T08:09:12.352Z,99.90
2018-11-26T08:10:17.749Z,99.90
2018-11-26T08:11:21.774Z,99.90
2018-11-26T08:12:25.771Z,99.90
2018-11-26T08:13:29.683Z,99.90
2018-11-26T08:14:33.595Z,99.90
2018-11-26T08:15:37.575Z,99.90
2018-11-26T08:16:41.599Z,99.90
2018-11-26T08:17:45.768Z,99.90
2018-11-26T08:18:49.825Z,99.90
2018-11-26T08:19:53.760Z,99.90
2018-11-26T08:20:57.709Z,99.90
2018-11-26T08:22:01.843Z,99.90
2018-11-26T08:23:06.454Z,99.90
2018-11-26T08:24:10.458Z,99.90
2018-11-26T08:25:16.607Z,99.90
2018-11-26T08:26:20.577Z,99.90
2018-11-26T08:27:24.579Z,99.90
2018-11-26T08:28:28.543Z,99.90
2018-11-26T08:29:32.490Z,99.90
2018-11-26T08:30:41.971Z,99.90
2018-11-26T08:31:45.993Z,99.90
2018-11-26T08:32:52.070Z,99.90
2018-11-26T08:33:55.986Z,99.90
2018-11-26T08:34:59.958Z,99.90
2018-11-26T08:36:09.150Z,99.90
2018-11-26T08:37:17.129Z,99.90
2018-11-26T08:38:24.030Z,99.90
2018-11-26T08:39:33.203Z,99.90
2018-11-26T08:40:42.924Z,99.90
2018-11-26T08:41:53.798Z,99.90
2018-11-26T08:42:58.757Z,99.90
2018-11-26T08:44:09.599Z,99.90
2018-11-26T08:45:17.596Z,99.90
2018-11-26T08:46:26.825Z,99.90
2018-11-26T08:47:36.068Z,99.90
2018-11-26T08:48:45.096Z,99.90
2018-11-26T08:49:49.024Z,99.90
2018-11-26T08:50:53.015Z,99.90
2018-11-26T08:51:56.965Z,99.90
2018-11-26T08:53:00.911Z,99.90
2018-11-26T08:54:06.937Z,99.90
2018-11-26T08:55:10.659Z,99.90
2018-11-26T08:56:14.663Z,99.90
2018-11-26T08:57:18.665Z,99.90
2018-11-26T08:58:22.654Z,99.90
2018-11-26T08:59:26.600Z,99.90
2018-11-26T09:00:30.576Z,99.90
2018-11-26T09:01:35.533Z,99.90
2018-11-26T09:02:45.779Z,99.90
2018-11-26T09:03:54.851Z,99.90
2018-11-26T09:05:04.834Z,99.90
2018-11-26T09:06:08.902Z,99.90
2018-11-26T09:07:13.022Z,99.90
2018-11-26T09:08:17.064Z,99.90
2018-11-26T09:09:21.126Z,99.90
2018-11-26T09:10:25.163Z,99.90
2018-11-26T09:11:29.265Z,99.90
2018-11-26T09:12:33.220Z,99.90
2018-11-26T09:13:37.236Z,99.90
2018-11-26T09:14:41.259Z,99.90
2018-11-26T09:15:45.260Z,99.90
2018-11-26T09:16:49.235Z,99.90
2018-11-26T09:17:53.222Z,99.90
2018-11-26T09:18:57.141Z,99.90
2018-11-26T09:20:01.136Z,99.90
2018-11-26T09:21:05.103Z,99.90
2018-11-26T09:22:09.077Z,99.90
2018-11-26T09:23:13.146Z,99.90
2018-11-26T09:24:17.098Z,99.90
2018-11-26T09:25:21.104Z,99.90
2018-11-26T09:26:25.019Z,99.90
2018-11-26T09:27:29.032Z,99.90
2018-11-26T09:28:33.107Z,99.90
2018-11-26T09:29:37.196Z,99.90
2018-11-26T09:30:41.140Z,99.90
2018-11-26T09:31:45.128Z,99.90
2018-11-26T09:32:49.149Z,99.90
2018-11-26T09:33:53.161Z,99.90
2018-11-26T09:34:57.072Z,99.90
2018-11-26T09:36:01.059Z,99.90
2018-11-26T09:37:05.093Z,99.90
2018-11-26T09:38:09.261Z,99.90
2018-11-26T09:39:13.379Z,99.90
2018-11-26T09:40:18.044Z,99.90
2018-11-26T09:41:22.059Z,99.90
2018-11-26T09:42:26.130Z,99.90
2018-11-26T09:43:30.118Z,99.90
2018-11-26T09:44:34.231Z,99.90
2018-11-26T09:45:40.381Z,99.90
2018-11-26T09:46:42.284Z,99.90
2018-11-26T09:47:46.413Z,99.90
2018-11-26T09:48:50.421Z,99.90
2018-11-26T09:49:54.364Z,99.90
2018-11-26T09:50:58.340Z,99.90
2018-11-26T09:52:02.380Z,99.90
2018-11-26T09:53:06.626Z,99.90
2018-11-26T09:54:10.779Z,99.90
2018-11-26T09:55:15.935Z,99.90
2018-11-26T09:56:19.873Z,99.90
2018-11-26T09:57:23.839Z,99.90
2018-11-26T09:58:27.932Z,99.90
2018-11-26T09:59:31.980Z,99.90
2018-11-26T10:00:35.994Z,99.90
2018-11-26T10:01:40.059Z,99.90
2018-11-26T10:02:50.145Z,99.90
2018-11-26T10:03:54.112Z,99.90
2018-11-26T10:04:58.140Z,99.90
2018-11-26T10:06:02.181Z,99.90
2018-11-26T10:07:06.499Z,99.90
2018-11-26T10:08:10.493Z,99.90
2018-11-26T10:09:14.510Z,99.90
2018-11-26T10:10:18.658Z,99.90
2018-11-26T10:11:22.783Z,99.90
2018-11-26T10:12:26.722Z,99.90
2018-11-26T10:13:30.747Z,99.90
2018-11-26T10:14:34.721Z,99.90
2018-11-26T10:15:38.746Z,99.90
2018-11-26T10:16:42.759Z,99.90
2018-11-26T10:17:46.837Z,99.90
2018-11-26T10:18:52.797Z,99.90
2018-11-26T10:19:56.869Z,99.90
2018-11-26T10:21:01.067Z,99.90
2018-11-26T10:22:05.143Z,99.90
2018-11-26T10:23:09.106Z,99.90
2018-11-26T10:24:13.097Z,99.90
2018-11-26T10:25:19.096Z,99.90
2018-11-26T10:26:23.103Z,99.90
2018-11-26T10:27:27.083Z,99.90
2018-11-26T10:28:31.140Z,99.90
2018-11-26T10:29:35.224Z,99.90
2018-11-26T10:30:39.261Z,99.90
2018-11-26T10:31:43.366Z,99.90
2018-11-26T10:32:47.973Z,99.90
2018-11-26T10:33:51.945Z,99.90
2018-11-26T10:34:55.866Z,99.90
2018-11-26T10:35:59.847Z,99.90
2018-11-26T10:37:03.933Z,99.90
2018-11-26T10:38:07.972Z,99.90
2018-11-26T10:39:11.993Z,99.90
2018-11-26T10:40:20.308Z,99.90
2018-11-26T10:41:24.350Z,99.90
2018-11-26T10:42:28.382Z,99.90
2018-11-26T10:43:32.415Z,99.90
2018-11-26T10:44:36.449Z,99.90
2018-11-26T10:45:40.383Z,99.90
2018-11-26T10:46:44.339Z,99.90
2018-11-26T10:47:50.500Z,99.90
2018-11-26T10:48:54.484Z,99.90
2018-11-26T10:49:58.449Z,99.90
2018-11-26T10:51:02.392Z,99.90
2018-11-26T10:52:06.579Z,99.90
2018-11-26T10:53:10.619Z,99.90
2018-11-26T10:54:14.615Z,99.90
2018-11-26T10:55:20.781Z,99.90
2018-11-26T10:56:24.811Z,99.90
2018-11-26T10:57:28.812Z,99.90
2018-11-26T10:58:32.873Z,99.90
2018-11-26T10:59:36.976Z,99.90
2018-11-26T11:00:42.024Z,99.90
2018-11-26T11:01:47.772Z,99.90
2018-11-26T11:02:52.211Z,99.90
2018-11-26T11:03:56.260Z,99.90
2018-11-26T11:05:00.215Z,99.90
2018-11-26T11:06:04.144Z,99.90
2018-11-26T11:07:08.110Z,99.90
2018-11-26T11:08:12.154Z,99.90
2018-11-26T11:09:16.280Z,99.90
2018-11-26T11:10:21.605Z,99.90
2018-11-26T11:11:25.588Z,99.90
2018-11-26T11:12:29.519Z,99.90
2018-11-26T11:13:33.624Z,99.90
2018-11-26T11:14:37.657Z,99.90
2018-11-26T11:15:41.620Z,99.90
2018-11-26T11:16:45.641Z,99.90
2018-11-26T11:17:50.591Z,99.90
2018-11-26T11:18:54.555Z,99.90
2018-11-26T11:20:01.610Z,99.90
2018-11-26T11:21:05.649Z,99.90
2018-11-26T11:22:09.657Z,99.90
2018-11-26T11:23:13.699Z,99.90
2018-11-26T11:24:17.691Z,99.90
2018-11-26T11:25:22.347Z,99.90
2018-11-26T11:26:26.355Z,99.90
2018-11-26T11:27:30.389Z,99.90
2018-11-26T11:28:34.386Z,99.90
2018-11-26T11:29:38.338Z,99.90
2018-11-26T11:30:42.380Z,99.90
2018-11-26T11:31:46.334Z,99.90
2018-11-26T11:32:50.432Z,99.90
2018-11-26T11:33:54.389Z,99.90
2018-11-26T11:34:58.372Z,99.90
2018-11-26T11:36:02.428Z,99.90
2018-11-26T11:37:06.666Z,99.90
2018-11-26T11:38:10.634Z,99.90
2018-11-26T11:39:14.695Z,99.90
2018-11-26T11:40:30.024Z,99.90
2018-11-26T11:41:34.606Z,99.90
2018-11-26T11:42:38.183Z,96.80
2018-11-26T11:43:42.210Z,94.10
2018-11-26T11:44:46.784Z,92.40
2018-11-26T11:45:50.848Z,88.70
2018-11-26T11:46:54.930Z,81.50
2018-11-26T11:47:58.907Z,75.80
2018-11-26T11:49:02.917Z,73.30
2018-11-26T11:50:09.378Z,68.80
2018-11-26T11:51:13.429Z,69.00
2018-11-26T11:52:17.538Z,70.80
2018-11-26T11:53:21.579Z,68.70
2018-11-26T11:54:25.674Z,67.60
2018-11-26T11:55:29.745Z,64.50
2018-11-26T11:56:33.881Z,65.70
2018-11-26T11:57:37.921Z,67.70
2018-11-26T11:58:41.975Z,64.00
2018-11-26T11:59:45.962Z,64.50
2018-11-26T12:00:50.658Z,65.60
2018-11-26T12:01:54.698Z,68.50
2018-11-26T12:02:59.101Z,75.60
2018-11-26T12:04:03.143Z,77.70
2018-11-26T12:05:08.661Z,81.90
2018-11-26T12:06:12.742Z,90.20
2018-11-26T12:07:18.907Z,87.40
2018-11-26T12:08:22.914Z,90.10
2018-11-26T12:09:26.930Z,89.10
2018-11-26T12:10:30.970Z,94.00
2018-11-26T12:11:35.013Z,95.10
2018-11-26T12:12:38.990Z,92.80
2018-11-26T12:13:43.140Z,94.00
2018-11-26T12:14:47.220Z,95.20
2018-11-26T12:15:52.610Z,96.80
2018-11-26T12:16:56.595Z,98.40
2018-11-26T12:18:00.901Z,99.90
2018-11-26T12:19:04.928Z,99.90
2018-11-26T12:20:10.418Z,99.90
2018-11-26T12:21:14.343Z,99.90
2018-11-26T12:22:18.405Z,99.90
2018-11-26T12:23:22.372Z,99.90
2018-11-26T12:24:26.498Z,99.90
2018-11-26T12:25:33.623Z,99.90
2018-11-26T12:26:37.697Z,99.90
2018-11-26T12:27:41.778Z,99.90
2018-11-26T12:28:45.761Z,99.90
2018-11-26T12:29:49.871Z,99.90
2018-11-26T12:30:53.824Z,99.90
2018-11-26T12:31:57.818Z,99.90
2018-11-26T12:33:01.858Z,99.90
2018-11-26T12:34:06.332Z,99.90
2018-11-26T12:35:10.509Z,99.90
2018-11-26T12:36:14.577Z,99.90
2018-11-26T12:37:18.544Z,99.90
2018-11-26T12:38:22.612Z,99.90
2018-11-26T12:39:26.581Z,99.90
2018-11-26T12:40:30.700Z,99.90
2018-11-26T12:41:35.693Z,99.90
2018-11-26T12:42:39.682Z,99.90
2018-11-26T12:43:43.728Z,99.90
2018-11-26T12:44:51.062Z,99.90
2018-11-26T12:45:55.186Z,99.90
2018-11-26T12:46:59.177Z,99.90
2018-11-26T12:48:03.349Z,99.90
2018-11-26T12:49:07.483Z,99.90
2018-11-26T12:50:11.477Z,99.90
2018-11-26T12:51:15.618Z,99.90
2018-11-26T12:52:19.666Z,99.90
2018-11-26T12:53:23.663Z,99.90
2018-11-26T12:54:27.663Z,99.90
2018-11-26T12:55:31.723Z,99.90
2018-11-26T12:56:35.734Z,99.90
2018-11-26T12:57:40.542Z,99.90
2018-11-26T12:58:44.591Z,99.90
2018-11-26T12:59:48.586Z,99.90
2018-11-26T13:00:52.611Z,99.90
2018-11-26T13:01:56.692Z,99.90
2018-11-26T13:03:11.244Z,99.90
2018-11-26T13:04:15.253Z,99.90
2018-11-26T13:05:20.024Z,99.90
2018-11-26T13:06:24.023Z,99.90
2018-11-26T13:07:28.264Z,99.90
2018-11-26T13:08:32.338Z,99.90
2018-11-26T13:09:36.497Z,99.90
2018-11-26T13:10:40.521Z,99.90
2018-11-26T13:11:44.541Z,99.90
2018-11-26T13:12:49.429Z,99.90
2018-11-26T13:13:54.253Z,99.90
2018-11-26T13:14:58.179Z,99.90
2018-11-26T13:16:02.379Z,99.90
2018-11-26T13:17:06.950Z,99.90
2018-11-26T13:18:11.029Z,99.90
2018-11-26T13:19:15.239Z,99.90
2018-11-26T13:20:20.749Z,99.90
2018-11-26T13:21:24.720Z,99.90
2018-11-26T13:22:28.796Z,99.90
2018-11-26T13:23:32.811Z,99.90
2018-11-26T13:24:36.821Z,99.90
2018-11-26T13:25:42.170Z,99.90
2018-11-26T13:26:45.299Z,99.90
2018-11-26T13:27:52.362Z,99.90
2018-11-26T13:28:56.447Z,99.90
2018-11-26T13:30:00.519Z,99.90
2018-11-26T13:31:04.550Z,99.90
2018-11-26T13:32:08.596Z,99.90
2018-11-26T13:33:14.205Z,99.90
2018-11-26T13:34:18.232Z,99.90
2018-11-26T13:35:22.213Z,99.90
2018-11-26T13:36:26.273Z,99.90
2018-11-26T13:37:30.257Z,99.90
2018-11-26T13:38:34.298Z,99.90
2018-11-26T13:39:38.336Z,99.90
2018-11-26T13:40:42.422Z,99.90
2018-11-26T13:41:46.431Z,99.90
2018-11-26T13:42:50.988Z,99.90
2018-11-26T13:43:54.959Z,99.90
2018-11-26T13:44:59.081Z,99.90
2018-11-26T13:46:03.078Z,99.90
2018-11-26T13:47:08.468Z,99.90
2018-11-26T13:48:13.977Z,99.90
2018-11-26T13:49:18.044Z,99.90